Time;durP1;ratioP1;P1;durP2;ratioP2;P2;SDS_P1;SDS_P2;PMS_P1;PMS_P2;Temp;Humidity;BMP_temperature;BMP_pressure;BME280_temperature;BME280_humidity;BME280_pressure;Samples;Min_cycle;Max_cycle;Signal;HPM_P1;HPM_P2
2022/04/17 00:02:00;;;;;;;1.88;1.70;;;;;;;;;;4970750;28;20039;-81
2022/04/17 00:04:25;;;;;;;1.92;1.67;;;;;;;;;;4939441;28;20031;-81
2022/04/17 00:06:51;;;;;;;1.88;1.60;;;;;;;;;;4939031;29;20035;-81
2022/04/17 00:09:17;;;;;;;2.72;1.70;;;;;;;;;;4938606;29;20043;-80
2022/04/17 00:11:42;;;;;;;2.03;1.70;;;;;;;;;;4938890;28;20027;-80
2022/04/17 00:14:10;;;;;;;1.90;1.70;;;;;;;;;;4954769;29;20231;-80
2022/04/17 00:16:35;;;;;;;2.13;1.50;;;;;;;;;;4954588;29;20036;-80
2022/04/17 00:19:00;;;;;;;3.10;1.70;;;;;;;;;;4938505;29;20039;-80
2022/04/17 00:21:26;;;;;;;1.98;1.77;;;;;;;;;;4938353;29;20070;-81
2022/04/17 00:23:51;;;;;;;2.40;1.95;;;;;;;;;;4938359;29;20031;-81
2022/04/17 00:26:16;;;;;;;1.70;1.60;;;;;;;;;;4938766;29;20422;-80
2022/04/17 00:28:42;;;;;;;2.72;1.73;;;;;;;;;;4955576;28;20031;-81
2022/04/17 00:31:07;;;;;;;1.65;1.55;;;;;;;;;;4938123;29;20393;-80
2022/04/17 00:33:32;;;;;;;3.25;1.73;;;;;;;;;;4938249;29;20046;-81
2022/04/17 00:35:58;;;;;;;1.73;1.63;;;;;;;;;;4938299;29;20035;-81
2022/04/17 00:38:23;;;;;;;2.22;1.60;;;;;;;;;;4954342;29;20365;-80
2022/04/17 00:40:49;;;;;;;3.05;1.80;;;;;;;;;;4955129;29;20059;-79
2022/04/17 00:43:22;;;;;;;3.60;2.10;;;;;;;;;;4953957;29;20439;-79
2022/04/17 00:45:47;;;;;;;2.72;1.95;;;;;;;;;;4938411;29;20114;-79
2022/04/17 00:48:12;;;;;;;2.00;1.80;;;;;;;;;;4937865;28;20437;-80
2022/04/17 00:50:38;;;;;;;2.38;1.83;;;;;;;;;;4937346;29;20038;-80
2022/04/17 00:53:04;;;;;;;1.95;1.70;;;;;;;;;;4937902;29;20033;-80
2022/04/17 00:55:29;;;;;;;2.15;1.95;;;;;;;;;;4922090;29;20042;-80
2022/04/17 00:57:54;;;;;;;4.38;2.25;;;;;;;;;;4953948;29;20050;-80
2022/04/17 01:00:20;;;;;;;2.88;2.10;;;;;;;;;;4938281;29;20462;-80
2022/04/17 01:02:45;;;;;;;2.28;1.70;;;;;;;;;;4954026;29;20518;-81
2022/04/17 01:05:11;;;;;;;2.80;1.83;;;;;;;;;;4921831;29;20054;-80
2022/04/17 01:07:37;;;;;;;2.08;1.60;;;;;;;;;;4938390;29;20034;-80
2022/04/17 01:10:04;;;;;;;3.38;2.08;;;;;;;;;;4953715;29;20035;-80
2022/04/17 01:12:29;;;;;;;2.22;1.95;;;;;;;;;;4953907;29;20055;-80
2022/04/17 01:14:55;;;;;;;2.42;1.92;;;;;;;;;;4969346;28;20524;-80
2022/04/17 01:17:21;;;;;;;2.70;2.20;;;;;;;;;;4953477;29;20035;-80
2022/04/17 01:19:46;;;;;;;2.22;1.95;;;;;;;;;;4953415;29;20027;-80
2022/04/17 01:22:12;;;;;;;2.90;2.13;;;;;;;;;;4954994;29;20023;-80
2022/04/17 01:27:23;;;;;;;3.70;2.30;;;;;;;;;;4953511;29;20057;-80
2022/04/17 01:29:50;;;;;;;3.35;2.00;;;;;;;;;;4937165;29;20035;-80
2022/04/17 01:32:16;;;;;;;3.25;2.22;;;;;;;;;;4953336;28;20023;-80
2022/04/17 01:34:41;;;;;;;2.17;1.98;;;;;;;;;;4969447;28;20338;-79
2022/04/17 01:37:07;;;;;;;2.20;2.00;;;;;;;;;;4937323;29;20035;-80
2022/04/17 01:39:32;;;;;;;2.92;2.20;;;;;;;;;;4937217;29;20085;-80
2022/04/17 01:41:59;;;;;;;2.25;1.88;;;;;;;;;;4952908;29;20031;-80
2022/04/17 01:44:28;;;;;;;3.08;1.90;;;;;;;;;;4952929;29;20408;-80
2022/04/17 01:46:53;;;;;;;2.53;1.73;;;;;;;;;;4953245;29;20027;-80
2022/04/17 01:49:19;;;;;;;2.38;1.90;;;;;;;;;;4954325;29;20460;-80
2022/04/17 01:51:46;;;;;;;4.10;2.20;;;;;;;;;;4937241;28;20106;-81
2022/04/17 01:54:16;;;;;;;2.55;1.92;;;;;;;;;;4952932;28;20031;-81
2022/04/17 01:56:42;;;;;;;3.75;2.28;;;;;;;;;;4952919;29;20035;-81
2022/04/17 01:59:09;;;;;;;3.15;2.00;;;;;;;;;;4952550;29;20134;-81
2022/04/17 02:01:36;;;;;;;2.97;2.00;;;;;;;;;;4952915;28;20062;-81
2022/04/17 02:04:02;;;;;;;4.47;1.98;;;;;;;;;;4936808;29;20090;-80
2022/04/17 02:06:27;;;;;;;3.25;2.03;;;;;;;;;;4936989;29;20117;-81
2022/04/17 02:08:53;;;;;;;3.25;1.80;;;;;;;;;;4952601;29;20114;-81
2022/04/17 02:11:19;;;;;;;2.97;2.22;;;;;;;;;;4954057;28;20174;-81
2022/04/17 02:13:45;;;;;;;2.88;1.90;;;;;;;;;;4952653;29;20110;-80
2022/04/17 02:16:11;;;;;;;6.40;2.15;;;;;;;;;;4952936;29;20039;-80
2022/04/17 02:18:36;;;;;;;2.38;1.88;;;;;;;;;;4936592;29;20039;-81
2022/04/17 02:21:02;;;;;;;2.38;1.90;;;;;;;;;;4953861;28;20027;-81
2022/04/17 02:23:27;;;;;;;2.55;2.35;;;;;;;;;;4953072;29;20509;-81
2022/04/17 02:25:53;;;;;;;3.25;2.38;;;;;;;;;;4952599;28;20557;-81
2022/04/17 02:28:18;;;;;;;6.50;3.13;;;;;;;;;;4952487;29;20033;-81
2022/04/17 02:30:44;;;;;;;2.80;1.98;;;;;;;;;;4968444;28;20392;-81
2022/04/17 02:33:10;;;;;;;2.38;2.17;;;;;;;;;;4936457;29;20482;-80
2022/04/17 02:35:36;;;;;;;2.45;2.17;;;;;;;;;;4952173;29;20525;-80
2022/04/17 02:38:01;;;;;;;2.90;2.25;;;;;;;;;;4920883;29;20062;-80
2022/04/17 02:40:26;;;;;;;2.65;2.13;;;;;;;;;;4936037;29;20532;-80
2022/04/17 02:42:55;;;;;;;3.22;2.08;;;;;;;;;;4952185;29;20071;-80
2022/04/17 02:45:20;;;;;;;5.28;2.15;;;;;;;;;;4936678;29;20091;-80
2022/04/17 02:47:47;;;;;;;3.10;2.63;;;;;;;;;;4936266;29;20439;-80
2022/04/17 02:50:15;;;;;;;2.97;2.30;;;;;;;;;;4936634;29;20495;-80
2022/04/17 02:52:41;;;;;;;2.83;2.35;;;;;;;;;;4952140;28;20074;-80
2022/04/17 02:55:07;;;;;;;5.13;2.40;;;;;;;;;;4952217;29;20470;-80
2022/04/17 02:57:32;;;;;;;3.50;2.63;;;;;;;;;;4936295;29;20039;-80
2022/04/17 02:59:59;;;;;;;2.35;2.10;;;;;;;;;;4936354;29;20031;-80
2022/04/17 03:07:53;;;;;;;5.07;2.90;;;;;;;;;;4952859;29;20043;-80
2022/04/17 03:10:18;;;;;;;2.78;2.50;;;;;;;;;;4952399;29;20035;-80
2022/04/17 03:12:44;;;;;;;3.10;2.33;;;;;;;;;;4954188;28;20031;-80
2022/04/17 03:15:10;;;;;;;3.88;2.40;;;;;;;;;;4956636;28;20035;-80
2022/04/17 03:17:36;;;;;;;3.20;2.55;;;;;;;;;;4956315;29;20035;-80
2022/04/17 03:20:03;;;;;;;3.35;2.60;;;;;;;;;;4955800;29;20104;-80
2022/04/17 03:22:28;;;;;;;2.88;2.33;;;;;;;;;;4940158;28;20043;-80
2022/04/17 03:24:54;;;;;;;3.08;2.45;;;;;;;;;;4955507;29;20342;-80
2022/04/17 03:27:19;;;;;;;3.88;2.75;;;;;;;;;;4939649;29;20046;-80
2022/04/17 03:29:45;;;;;;;3.22;2.72;;;;;;;;;;4955719;29;20536;-81
2022/04/17 03:32:10;;;;;;;3.28;2.72;;;;;;;;;;4955762;29;20461;-81
2022/04/17 03:34:36;;;;;;;4.07;2.28;;;;;;;;;;4956560;29;20477;-80
2022/04/17 03:37:02;;;;;;;4.00;2.85;;;;;;;;;;4939558;29;20062;-80
2022/04/17 03:39:27;;;;;;;4.72;2.63;;;;;;;;;;4956831;28;20103;-81
2022/04/17 03:41:53;;;;;;;3.72;2.80;;;;;;;;;;4955248;29;20035;-80
2022/04/17 03:44:19;;;;;;;2.88;2.58;;;;;;;;;;4955320;28;20054;-80
2022/04/17 03:46:45;;;;;;;3.65;2.50;;;;;;;;;;4955892;29;20039;-82
2022/04/17 03:49:11;;;;;;;4.28;2.60;;;;;;;;;;4955399;29;20394;-80
2022/04/17 03:51:36;;;;;;;3.15;2.47;;;;;;;;;;4955198;28;20028;-80
2022/04/17 03:54:02;;;;;;;6.18;2.53;;;;;;;;;;4955249;29;20177;-79
2022/04/17 03:56:27;;;;;;;5.18;2.70;;;;;;;;;;4955164;29;20478;-80
2022/04/17 03:58:53;;;;;;;3.50;2.63;;;;;;;;;;4955244;29;20493;-80
2022/04/17 04:01:18;;;;;;;4.18;2.60;;;;;;;;;;4956406;29;20038;-79
2022/04/17 04:03:44;;;;;;;4.25;2.60;;;;;;;;;;4954971;29;20031;-80
2022/04/17 04:06:10;;;;;;;5.13;2.33;;;;;;;;;;4955207;29;20031;-81
2022/04/17 04:08:35;;;;;;;3.13;2.45;;;;;;;;;;4956096;28;20027;-79
2022/04/17 04:11:01;;;;;;;4.55;2.63;;;;;;;;;;4954760;29;20445;-80
2022/04/17 04:13:26;;;;;;;3.15;2.72;;;;;;;;;;4955065;29;20110;-80
2022/04/17 04:15:51;;;;;;;4.07;2.60;;;;;;;;;;4938950;29;20415;-80
2022/04/17 04:18:17;;;;;;;5.68;2.75;;;;;;;;;;4971283;28;20039;-80
2022/04/17 04:20:43;;;;;;;4.03;2.97;;;;;;;;;;4938699;29;20035;-80
2022/04/17 04:23:09;;;;;;;3.13;2.50;;;;;;;;;;4938562;28;20038;-80
2022/04/17 04:25:35;;;;;;;3.28;2.42;;;;;;;;;;4938046;29;20114;-80
2022/04/17 04:30:44;;;;;;;3.63;2.67;;;;;;;;;;4941001;29;20102;-80
2022/04/17 04:33:09;;;;;;;3.08;2.50;;;;;;;;;;4954974;29;20027;-80
2022/04/17 04:35:35;;;;;;;3.92;2.97;;;;;;;;;;4938966;29;20057;-80
2022/04/17 04:38:01;;;;;;;3.30;3.00;;;;;;;;;;4954974;29;20031;-80
2022/04/17 04:40:30;;;;;;;3.35;2.65;;;;;;;;;;4938595;29;20102;-80
2022/04/17 04:43:02;;;;;;;4.72;2.92;;;;;;;;;;4938975;29;20099;-80
2022/04/17 04:48:12;;;;;;;;;;;;;;;;;;4955615;29;20054;-80
2022/04/17 04:50:37;;;;;;;3.83;2.50;;;;;;;;;;4955215;29;19910;-80
2022/04/17 04:53:04;;;;;;;4.20;3.10;;;;;;;;;;4954965;28;20031;-79
2022/04/17 04:55:29;;;;;;;2.90;2.50;;;;;;;;;;4954959;28;20034;-79
2022/04/17 04:57:55;;;;;;;3.00;2.70;;;;;;;;;;4939203;29;20031;-79
2022/04/17 05:00:20;;;;;;;4.80;3.10;;;;;;;;;;4972447;28;20162;-80
2022/04/17 05:02:45;;;;;;;3.47;2.75;;;;;;;;;;4955691;28;20050;-81
2022/04/17 05:05:11;;;;;;;6.20;3.10;;;;;;;;;;4939955;29;20042;-81
2022/04/17 05:07:37;;;;;;;3.60;2.80;;;;;;;;;;4956508;29;20042;-80
2022/04/17 05:10:06;;;;;;;3.30;2.65;;;;;;;;;;4955929;28;20024;-80
2022/04/17 05:12:33;;;;;;;3.75;2.70;;;;;;;;;;4939270;29;20086;-81
2022/04/17 05:14:59;;;;;;;4.43;2.80;;;;;;;;;;4955105;29;20138;-81
2022/04/17 05:17:24;;;;;;;7.47;2.95;;;;;;;;;;4956222;29;20156;-79
2022/04/17 05:19:50;;;;;;;3.28;2.50;;;;;;;;;;4939446;29;20035;-79
2022/04/17 05:22:16;;;;;;;5.00;2.70;;;;;;;;;;4954879;28;20043;-80
2022/04/17 05:24:45;;;;;;;5.45;3.00;;;;;;;;;;4955417;28;20190;-79
2022/04/17 05:27:12;;;;;;;3.90;2.75;;;;;;;;;;4955027;29;20031;-79
2022/04/17 05:29:38;;;;;;;3.78;2.80;;;;;;;;;;4954808;28;20027;-78
2022/04/17 05:32:03;;;;;;;5.07;2.90;;;;;;;;;;4954788;29;20619;-78
2022/04/17 05:34:29;;;;;;;5.47;3.40;;;;;;;;;;4956049;29;20034;-79
2022/04/17 05:36:54;;;;;;;4.70;3.10;;;;;;;;;;4938295;29;20061;-79
2022/04/17 05:39:20;;;;;;;4.82;3.33;;;;;;;;;;4955002;29;20051;-80
2022/04/17 05:41:45;;;;;;;6.82;2.97;;;;;;;;;;4939013;29;20448;-79
2022/04/17 05:44:11;;;;;;;4.20;3.40;;;;;;;;;;4954227;29;20147;-78
2022/04/17 05:46:37;;;;;;;5.65;3.10;;;;;;;;;;4938867;29;20078;-78
2022/04/17 05:49:06;;;;;;;6.78;2.80;;;;;;;;;;4938331;28;20110;-78
2022/04/17 05:51:36;;;;;;;3.95;2.80;;;;;;;;;;4955033;28;20097;-78
2022/04/17 05:54:05;;;;;;;7.38;3.35;;;;;;;;;;4954473;29;20027;-77
2022/04/17 05:56:31;;;;;;;6.20;2.95;;;;;;;;;;4970373;28;20019;-78
2022/04/17 05:58:56;;;;;;;6.72;2.65;;;;;;;;;;4953197;29;20038;-78
2022/04/17 06:01:22;;;;;;;3.60;2.70;;;;;;;;;;4953124;29;20083;-78
2022/04/17 06:03:49;;;;;;;6.47;2.90;;;;;;;;;;4952966;29;20031;-78
2022/04/17 06:06:15;;;;;;;6.53;2.88;;;;;;;;;;4953228;28;20035;-78
2022/04/17 06:08:41;;;;;;;4.63;3.03;;;;;;;;;;4936861;29;20034;-78
2022/04/17 06:11:06;;;;;;;5.22;3.00;;;;;;;;;;4937631;29;20064;-78
2022/04/17 06:13:31;;;;;;;6.80;3.13;;;;;;;;;;4937223;29;20120;-78
2022/04/17 06:15:57;;;;;;;5.22;2.70;;;;;;;;;;4953807;29;20106;-78
2022/04/17 06:18:22;;;;;;;8.45;3.03;;;;;;;;;;4955430;28;20027;-79
2022/04/17 06:20:47;;;;;;;4.63;3.20;;;;;;;;;;4953799;29;20034;-78
2022/04/17 06:23:13;;;;;;;9.20;3.33;;;;;;;;;;4953386;29;20130;-78
2022/04/17 06:25:38;;;;;;;11.18;2.97;;;;;;;;;;4955105;29;20031;-78
2022/04/17 06:28:04;;;;;;;5.53;2.97;;;;;;;;;;4953574;29;20039;-78
2022/04/17 06:30:29;;;;;;;3.55;2.90;;;;;;;;;;4954794;29;20039;-78
2022/04/17 06:32:55;;;;;;;7.18;3.30;;;;;;;;;;4937758;29;20035;-78
2022/04/17 06:35:20;;;;;;;6.95;3.95;;;;;;;;;;4954650;28;20031;-78
2022/04/17 06:37:55;;;;;;;3.33;2.90;;;;;;;;;;4955276;29;20118;-78
2022/04/17 06:40:22;;;;;;;6.22;3.10;;;;;;;;;;4952412;29;20359;-78
2022/04/17 06:42:48;;;;;;;4.28;2.80;;;;;;;;;;4953826;28;20033;-78
2022/04/17 06:45:15;;;;;;;6.07;2.83;;;;;;;;;;4952443;29;20027;-80
2022/04/17 06:47:40;;;;;;;6.07;2.90;;;;;;;;;;4953938;28;20038;-78
2022/04/17 06:50:06;;;;;;;4.60;2.50;;;;;;;;;;4956569;29;20027;-81
2022/04/17 06:52:32;;;;;;;2.67;2.25;;;;;;;;;;4940696;29;20042;-79
2022/04/17 06:54:57;;;;;;;5.00;2.70;;;;;;;;;;4940565;29;20039;-79
2022/04/17 06:57:30;;;;;;;17.55;3.20;;;;;;;;;;4957517;29;20170;-79
2022/04/17 06:59:56;;;;;;;3.53;2.72;;;;;;;;;;4956267;29;20390;-83
2022/04/17 07:02:21;;;;;;;5.43;3.20;;;;;;;;;;4956020;29;20031;-80
2022/04/17 07:04:46;;;;;;;9.02;3.20;;;;;;;;;;4957358;29;20112;-78
2022/04/17 07:07:12;;;;;;;9.35;3.00;;;;;;;;;;4957754;28;20035;-78
2022/04/17 07:09:37;;;;;;;7.78;3.13;;;;;;;;;;4955776;29;20036;-78
2022/04/17 07:12:03;;;;;;;7.03;3.20;;;;;;;;;;4955760;29;20031;-78
2022/04/17 07:14:28;;;;;;;3.85;2.88;;;;;;;;;;4955867;28;20028;-78
2022/04/17 07:16:53;;;;;;;8.85;2.53;;;;;;;;;;4957111;29;20038;-79
2022/04/17 07:19:20;;;;;;;7.18;2.90;;;;;;;;;;4957085;29;20032;-79
2022/04/17 07:21:46;;;;;;;5.53;2.72;;;;;;;;;;4956877;29;20035;-78
2022/04/17 07:24:11;;;;;;;8.15;2.63;;;;;;;;;;4955590;29;20397;-78
2022/04/17 07:26:36;;;;;;;5.97;2.92;;;;;;;;;;4939698;29;20118;-78
2022/04/17 07:29:03;;;;;;;4.80;3.25;;;;;;;;;;4971535;28;20186;-79
2022/04/17 07:31:29;;;;;;;7.68;3.25;;;;;;;;;;4955582;29;20026;-78
2022/04/17 07:33:54;;;;;;;3.55;2.30;;;;;;;;;;4955581;29;20339;-78
2022/04/17 07:36:20;;;;;;;6.63;2.58;;;;;;;;;;4956777;29;20064;-78
2022/04/17 07:38:46;;;;;;;5.25;2.60;;;;;;;;;;4956688;28;20461;-77
2022/04/17 07:41:11;;;;;;;5.70;2.20;;;;;;;;;;4956610;29;20046;-78
2022/04/17 07:43:36;;;;;;;3.83;2.05;;;;;;;;;;4939104;28;20421;-79
2022/04/17 07:46:02;;;;;;;3.53;2.35;;;;;;;;;;4956680;29;20258;-79
2022/04/17 07:48:27;;;;;;;10.27;2.42;;;;;;;;;;4956685;28;20031;-80
2022/04/17 07:50:54;;;;;;;5.88;2.55;;;;;;;;;;4939712;29;20122;-79
2022/04/17 07:53:20;;;;;;;4.45;2.38;;;;;;;;;;4924460;29;20038;-80
2022/04/17 07:55:45;;;;;;;5.78;2.15;;;;;;;;;;4956611;28;20093;-79
2022/04/17 08:00:58;;;;;;;5.28;2.20;;;;;;;;;;4955449;29;20057;-78
2022/04/17 08:03:34;;;;;;;3.30;2.10;;;;;;;;;;4954924;29;20023;-79
2022/04/17 08:06:01;;;;;;;5.13;2.22;;;;;;;;;;4955285;29;20046;-80
2022/04/17 08:08:27;;;;;;;3.33;1.90;;;;;;;;;;4954741;29;20019;-80
2022/04/17 08:10:52;;;;;;;5.93;2.08;;;;;;;;;;4954830;28;20082;-81
2022/04/17 08:13:18;;;;;;;6.93;1.80;;;;;;;;;;4938976;29;20051;-81
2022/04/17 08:15:43;;;;;;;4.75;2.20;;;;;;;;;;4956195;29;20038;-81
2022/04/17 08:18:09;;;;;;;8.77;1.98;;;;;;;;;;4939527;29;20450;-81
2022/04/17 08:20:34;;;;;;;4.68;2.53;;;;;;;;;;4938719;29;20061;-80
2022/04/17 08:23:00;;;;;;;8.45;2.50;;;;;;;;;;4955173;29;20042;-83
2022/04/17 08:25:25;;;;;;;33.10;6.18;;;;;;;;;;4955130;29;20035;-84
2022/04/17 08:27:52;;;;;;;27.35;3.28;;;;;;;;;;4955145;29;20035;-82
2022/04/17 08:30:28;;;;;;;11.45;2.58;;;;;;;;;;4954262;29;20431;-81
2022/04/17 08:32:53;;;;;;;5.20;2.38;;;;;;;;;;4954967;29;20027;-82
2022/04/17 08:35:19;;;;;;;8.60;2.75;;;;;;;;;;4955946;29;20042;-83
2022/04/17 08:37:45;;;;;;;4.38;2.15;;;;;;;;;;4938383;29;20035;-82
2022/04/17 08:40:11;;;;;;;6.07;2.30;;;;;;;;;;4954038;29;20070;-83
2022/04/17 08:42:38;;;;;;;3.17;1.95;;;;;;;;;;4954179;29;20402;-81
2022/04/17 08:45:04;;;;;;;5.78;2.10;;;;;;;;;;4954731;29;20062;-84
2022/04/17 08:47:30;;;;;;;7.97;2.20;;;;;;;;;;4954412;28;20090;-83
2022/04/17 08:49:56;;;;;;;5.90;2.28;;;;;;;;;;4939449;29;20035;-83
2022/04/17 08:52:22;;;;;;;4.53;1.98;;;;;;;;;;4954395;28;20062;-82
2022/04/17 08:54:48;;;;;;;3.05;1.98;;;;;;;;;;4954041;29;20485;-81
2022/04/17 08:57:16;;;;;;;5.00;2.00;;;;;;;;;;4938319;28;20478;-80
2022/04/17 08:59:41;;;;;;;6.47;2.35;;;;;;;;;;4954311;29;20031;-81
2022/04/17 09:02:10;;;;;;;5.47;2.40;;;;;;;;;;4955234;29;20050;-81
2022/04/17 09:04:40;;;;;;;4.43;2.08;;;;;;;;;;4954001;29;20023;-81
2022/04/17 09:07:07;;;;;;;4.53;2.30;;;;;;;;;;4954175;29;20393;-80
2022/04/17 09:09:40;;;;;;;7.53;2.30;;;;;;;;;;4937562;28;20485;-81
2022/04/17 09:12:06;;;;;;;3.35;2.00;;;;;;;;;;4955364;28;20110;-81
2022/04/17 09:14:37;;;;;;;5.97;2.00;;;;;;;;;;4953819;29;20046;-81
2022/04/17 09:17:08;;;;;;;3.92;2.45;;;;;;;;;;4953896;28;20114;-80
2022/04/17 09:19:33;;;;;;;6.97;2.35;;;;;;;;;;4953718;29;20074;-79
2022/04/17 09:22:01;;;;;;;12.70;2.10;;;;;;;;;;4953852;29;20490;-79
2022/04/17 09:24:26;;;;;;;6.15;2.03;;;;;;;;;;4953996;28;20079;-79
2022/04/17 09:26:56;;;;;;;2.92;2.10;;;;;;;;;;4955057;29;20083;-80
2022/04/17 09:29:24;;;;;;;6.15;2.17;;;;;;;;;;4953551;28;20031;-81
2022/04/17 09:32:17;;;;;;;7.80;2.00;;;;;;;;;;4953616;29;20034;-79
2022/04/17 09:34:55;;;;;;;4.10;2.20;;;;;;;;;;4952252;29;20082;-81
2022/04/17 09:37:23;;;;;;;6.85;2.05;;;;;;;;;;4953606;29;20039;-81
2022/04/17 09:39:50;;;;;;;4.97;1.92;;;;;;;;;;4954765;28;20059;-80
2022/04/17 09:42:29;;;;;;;5.00;2.20;;;;;;;;;;4937277;29;20114;-80
2022/04/17 09:44:54;;;;;;;4.28;1.83;;;;;;;;;;4953896;28;20071;-80
2022/04/17 09:47:31;;;;;;;3.08;1.75;;;;;;;;;;4954639;29;20059;-80
2022/04/17 09:50:03;;;;;;;3.17;1.80;;;;;;;;;;4953642;29;20035;-80
2022/04/17 09:52:50;;;;;;;4.00;1.80;;;;;;;;;;4937202;29;20118;-78
2022/04/17 09:55:26;;;;;;;5.13;1.88;;;;;;;;;;4953365;29;20351;-80
2022/04/17 09:57:56;;;;;;;4.00;1.90;;;;;;;;;;4937076;29;20024;-80
2022/04/17 10:00:23;;;;;;;2.67;1.70;;;;;;;;;;4937143;29;20178;-81
2022/04/17 10:02:49;;;;;;;2.28;1.60;;;;;;;;;;4937753;28;20085;-80
2022/04/17 10:05:15;;;;;;;6.90;2.17;;;;;;;;;;4954935;28;20504;-80
2022/04/17 10:07:43;;;;;;;6.93;2.53;;;;;;;;;;4956020;29;20121;-80
2022/04/17 10:10:09;;;;;;;3.92;1.70;;;;;;;;;;4953878;29;20042;-82
2022/04/17 10:12:34;;;;;;;7.68;1.80;;;;;;;;;;4952712;29;20023;-80
2022/04/17 10:15:07;;;;;;;3.08;1.85;;;;;;;;;;4953307;29;20359;-83
2022/04/17 10:17:38;;;;;;;6.68;1.70;;;;;;;;;;4954425;28;20430;-82
2022/04/17 10:20:06;;;;;;;2.55;1.70;;;;;;;;;;4952985;28;20042;-82
2022/04/17 10:22:39;;;;;;;2.55;1.58;;;;;;;;;;4954730;28;20082;-83
2022/04/17 10:25:09;;;;;;;2.72;1.60;;;;;;;;;;4952814;29;20035;-83
2022/04/17 10:27:51;;;;;;;2.40;1.70;;;;;;;;;;4953666;29;20035;-83
2022/04/17 10:30:21;;;;;;;3.22;1.80;;;;;;;;;;4954215;28;20024;-83
2022/04/17 10:33:16;;;;;;;2.53;1.52;;;;;;;;;;4952941;29;20090;-82
2022/04/17 10:36:03;;;;;;;2.92;1.60;;;;;;;;;;4952514;29;20323;-83
2022/04/17 10:38:30;;;;;;;2.22;1.60;;;;;;;;;;4952584;29;20107;-81
2022/04/17 10:41:02;;;;;;;3.80;1.80;;;;;;;;;;4952314;28;20402;-81
2022/04/17 10:43:33;;;;;;;2.60;1.95;;;;;;;;;;4952447;29;20051;-82
2022/04/17 10:46:11;;;;;;;5.18;1.65;;;;;;;;;;4952349;29;20126;-82
2022/04/17 10:48:58;;;;;;;9.98;2.30;;;;;;;;;;4953872;28;20473;-82
2022/04/17 10:51:30;;;;;;;3.53;2.00;;;;;;;;;;4952392;29;20401;-83
2022/04/17 10:54:10;;;;;;;4.57;2.40;;;;;;;;;;4952250;28;20024;-82
2022/04/17 10:56:36;;;;;;;6.80;2.35;;;;;;;;;;4952739;29;20151;-80
2022/04/17 10:59:15;;;;;;;3.60;2.17;;;;;;;;;;4954338;29;20031;-82
2022/04/17 11:01:43;;;;;;;3.60;2.00;;;;;;;;;;4970035;28;20035;-82
2022/04/17 11:04:25;;;;;;;5.50;2.20;;;;;;;;;;4952814;29;20032;-81
2022/04/17 11:07:06;;;;;;;3.95;1.90;;;;;;;;;;4952386;28;20039;-82
2022/04/17 11:09:33;;;;;;;3.30;1.85;;;;;;;;;;4953729;28;20027;-81
2022/04/17 11:12:28;;;;;;;4.90;2.17;;;;;;;;;;4952665;29;20122;-82
2022/04/17 11:15:02;;;;;;;2.90;2.10;;;;;;;;;;4951664;29;20470;-81
2022/04/17 11:17:32;;;;;;;6.13;2.28;;;;;;;;;;4953857;28;20390;-82
2022/04/17 11:20:02;;;;;;;3.80;2.40;;;;;;;;;;4952513;28;20050;-81
2022/04/17 11:22:33;;;;;;;6.78;2.80;;;;;;;;;;4936242;29;20107;-82
2022/04/17 11:25:00;;;;;;;6.07;2.60;;;;;;;;;;4954082;28;20038;-82
2022/04/17 11:27:31;;;;;;;3.75;2.67;;;;;;;;;;4953811;28;20106;-83
2022/04/17 11:29:58;;;;;;;4.20;2.67;;;;;;;;;;4953789;29;20092;-80
2022/04/17 11:32:25;;;;;;;3.22;2.60;;;;;;;;;;4953599;28;20062;-80
2022/04/17 11:34:53;;;;;;;3.22;2.45;;;;;;;;;;4956319;28;20030;-82
2022/04/17 11:37:22;;;;;;;4.57;2.35;;;;;;;;;;4957026;28;20028;-84
2022/04/17 11:39:48;;;;;;;2.63;2.00;;;;;;;;;;4955384;29;20039;-83
2022/04/17 11:42:14;;;;;;;3.58;2.20;;;;;;;;;;4956679;28;20066;-83
2022/04/17 11:44:41;;;;;;;4.65;2.00;;;;;;;;;;4955510;29;20034;-83
2022/04/17 11:47:07;;;;;;;3.42;1.80;;;;;;;;;;4955690;29;20023;-83
2022/04/17 11:49:45;;;;;;;1.90;1.67;;;;;;;;;;4955516;29;20102;-83
2022/04/17 11:52:16;;;;;;;3.40;2.10;;;;;;;;;;4956653;29;20057;-81
2022/04/17 11:54:42;;;;;;;6.00;1.90;;;;;;;;;;4955488;29;20038;-81
2022/04/17 11:57:08;;;;;;;2.90;1.88;;;;;;;;;;4955302;29;20596;-83
2022/04/17 11:59:47;;;;;;;2.58;1.73;;;;;;;;;;4955282;29;20213;-83
2022/04/17 12:02:16;;;;;;;2.60;2.25;;;;;;;;;;4955345;29;20114;-83
2022/04/17 12:04:47;;;;;;;1.90;1.63;;;;;;;;;;4940850;29;20027;-82
2022/04/17 12:07:18;;;;;;;3.92;1.50;;;;;;;;;;4971840;28;20111;-83
2022/04/17 12:09:43;;;;;;;2.40;1.50;;;;;;;;;;4959238;28;20027;-83
2022/04/17 12:12:13;;;;;;;4.15;1.45;;;;;;;;;;4965337;29;20434;-83
2022/04/17 12:14:39;;;;;;;2.40;1.65;;;;;;;;;;4951626;29;20118;-83
2022/04/17 12:17:04;;;;;;;6.35;1.80;;;;;;;;;;4966130;28;20102;-83
2022/04/17 12:19:30;;;;;;;2.88;1.63;;;;;;;;;;4963151;29;20031;-83
2022/04/17 12:21:55;;;;;;;2.13;1.50;;;;;;;;;;4966083;29;20433;-82
2022/04/17 12:24:22;;;;;;;1.85;1.52;;;;;;;;;;4967779;29;20051;-83
2022/04/17 12:26:48;;;;;;;2.42;1.35;;;;;;;;;;4945767;29;20032;-83
2022/04/17 12:29:14;;;;;;;2.35;1.50;;;;;;;;;;4956438;28;20194;-83
2022/04/17 12:31:40;;;;;;;2.33;1.60;;;;;;;;;;4956358;29;20158;-84
2022/04/17 12:34:08;;;;;;;1.33;1.23;;;;;;;;;;4939994;28;20070;-86
2022/04/17 12:36:37;;;;;;;2.20;1.58;;;;;;;;;;4956797;28;20046;-84
2022/04/17 12:39:03;;;;;;;1.63;1.30;;;;;;;;;;4956557;28;20031;-84
2022/04/17 12:41:30;;;;;;;4.10;1.40;;;;;;;;;;4954523;29;20402;-83
2022/04/17 12:43:55;;;;;;;1.20;1.10;;;;;;;;;;4954694;28;20479;-84
2022/04/17 12:46:28;;;;;;;1.67;1.27;;;;;;;;;;4953828;28;20114;-84
2022/04/17 12:49:10;;;;;;;2.55;1.60;;;;;;;;;;4954514;29;20189;-82
2022/04/17 12:51:40;;;;;;;2.35;1.48;;;;;;;;;;4955997;28;20043;-83
2022/04/17 12:54:12;;;;;;;3.33;2.00;;;;;;;;;;4954527;29;20027;-85
2022/04/17 12:56:38;;;;;;;4.32;2.13;;;;;;;;;;4954386;28;20047;-83
2022/04/17 12:59:04;;;;;;;6.18;1.90;;;;;;;;;;4960999;28;20110;-82
2022/04/17 13:01:32;;;;;;;4.40;1.85;;;;;;;;;;4958699;28;20035;-84
2022/04/17 13:04:10;;;;;;;4.15;1.67;;;;;;;;;;4945128;29;20035;-85
2022/04/17 13:06:36;;;;;;;5.78;1.98;;;;;;;;;;4956883;29;20039;-84
2022/04/17 13:09:18;;;;;;;5.03;1.70;;;;;;;;;;4957225;29;20386;-84
2022/04/17 13:11:47;;;;;;;3.63;1.75;;;;;;;;;;4954405;28;20034;-85
2022/04/17 13:14:13;;;;;;;3.13;1.60;;;;;;;;;;4953752;28;20030;-84
2022/04/17 13:16:58;;;;;;;5.80;1.90;;;;;;;;;;4937487;28;20035;-84
2022/04/17 13:19:25;;;;;;;4.90;1.90;;;;;;;;;;4953764;29;20434;-84
2022/04/17 13:21:52;;;;;;;3.83;1.75;;;;;;;;;;4954083;28;20031;-86
2022/04/17 13:24:26;;;;;;;3.70;1.83;;;;;;;;;;4953680;28;20019;-85
2022/04/17 13:26:52;;;;;;;2.85;1.63;;;;;;;;;;4953850;29;20031;-84
2022/04/17 13:29:18;;;;;;;5.75;1.90;;;;;;;;;;4953259;28;20039;-85
2022/04/17 13:31:44;;;;;;;5.07;1.58;;;;;;;;;;4953676;29;20031;-84
2022/04/17 13:34:09;;;;;;;2.38;1.80;;;;;;;;;;4969282;28;20134;-84
2022/04/17 13:36:35;;;;;;;2.28;1.33;;;;;;;;;;4953545;29;20036;-85
2022/04/17 13:39:00;;;;;;;2.35;1.60;;;;;;;;;;4954173;29;20063;-84
2022/04/17 13:41:29;;;;;;;2.25;1.40;;;;;;;;;;4954691;29;20136;-84
2022/04/17 13:43:55;;;;;;;3.03;1.70;;;;;;;;;;4954305;29;20043;-83
2022/04/17 13:46:23;;;;;;;2.35;1.38;;;;;;;;;;4938423;29;20501;-83
2022/04/17 13:48:49;;;;;;;1.50;1.35;;;;;;;;;;4954789;28;20054;-84
2022/04/17 13:51:14;;;;;;;2.75;1.30;;;;;;;;;;4953897;28;20042;-82
2022/04/17 13:53:40;;;;;;;2.03;1.40;;;;;;;;;;4956798;29;20099;-83
2022/04/17 13:56:05;;;;;;;1.90;1.40;;;;;;;;;;4940871;29;20027;-83
2022/04/17 13:58:31;;;;;;;2.20;1.45;;;;;;;;;;4958462;29;20402;-83
2022/04/17 14:00:56;;;;;;;1.73;1.27;;;;;;;;;;4957454;29;20027;-83
2022/04/17 14:03:22;;;;;;;1.98;1.42;;;;;;;;;;4958925;29;20023;-84
2022/04/17 14:05:48;;;;;;;2.17;1.30;;;;;;;;;;4955372;28;20039;-80
2022/04/17 14:08:14;;;;;;;2.50;1.30;;;;;;;;;;4953493;29;20046;-81
2022/04/17 14:10:40;;;;;;;4.20;1.40;;;;;;;;;;4953496;29;20430;-80
2022/04/17 14:13:07;;;;;;;2.50;1.20;;;;;;;;;;4936949;29;20058;-82
2022/04/17 14:15:33;;;;;;;2.33;1.60;;;;;;;;;;4953080;29;20031;-79
2022/04/17 14:17:58;;;;;;;1.50;1.35;;;;;;;;;;4952793;29;20050;-82
2022/04/17 14:20:24;;;;;;;3.90;1.50;;;;;;;;;;4953585;29;20035;-82
2022/04/17 14:22:49;;;;;;;2.95;1.23;;;;;;;;;;4953368;29;20019;-83
2022/04/17 14:25:15;;;;;;;2.45;1.40;;;;;;;;;;4953298;29;20035;-83
2022/04/17 14:27:41;;;;;;;1.50;1.40;;;;;;;;;;4921307;29;20046;-85
2022/04/17 14:30:06;;;;;;;2.45;1.42;;;;;;;;;;4954507;28;20030;-82
2022/04/17 14:32:32;;;;;;;1.30;1.00;;;;;;;;;;4936823;29;20509;-83
2022/04/17 14:34:57;;;;;;;2.95;1.88;;;;;;;;;;4936797;28;20035;-83
2022/04/17 14:37:23;;;;;;;1.77;1.10;;;;;;;;;;4953133;29;20031;-82
2022/04/17 14:39:48;;;;;;;2.03;1.50;;;;;;;;;;4953741;28;20047;-83
2022/04/17 14:42:13;;;;;;;1.63;1.23;;;;;;;;;;4952522;29;20031;-82
2022/04/17 14:44:39;;;;;;;1.40;1.30;;;;;;;;;;4953676;29;20045;-82
2022/04/17 14:47:06;;;;;;;4.07;1.60;;;;;;;;;;4953662;29;20059;-83
2022/04/17 14:49:31;;;;;;;1.30;1.20;;;;;;;;;;4952648;28;20026;-83
2022/04/17 14:51:57;;;;;;;2.20;1.40;;;;;;;;;;4936985;29;20031;-82
2022/04/17 14:54:22;;;;;;;1.90;1.40;;;;;;;;;;4936985;29;20118;-83
2022/04/17 14:56:48;;;;;;;4.25;1.55;;;;;;;;;;4954669;28;20031;-83
2022/04/17 14:59:13;;;;;;;1.67;1.23;;;;;;;;;;4952927;29;20093;-85
2022/04/17 15:01:39;;;;;;;3.53;1.40;;;;;;;;;;4954747;28;20027;-85